Time;durP1;ratioP1;P1;durP2;ratioP2;P2;SDS_P1;SDS_P2;PMS_P1;PMS_P2;Temp;Humidity;BMP_temperature;BMP_pressure;BME280_temperature;BME280_humidity;BME280_pressure;Samples;Min_cycle;Max_cycle;Signal;HPM_P1;HPM_P2
2023/04/12 00:00:58;;;;;;;;;;;;;;;16.50;48.74;99332.72;5020168;28;1158;-39
2023/04/12 00:03:25;;;;;;;;;;;;;;;16.22;47.97;99332.78;5020136;28;1074;-37
2023/04/12 00:05:53;;;;;;;;;;;;;;;16.84;48.19;99331.41;5020055;28;1079;-39
2023/04/12 00:08:23;;;;;;;;;;;;;;;16.53;48.71;99332.09;5019877;28;1028;-40
2023/04/12 00:10:49;;;;;;;;;;;;;;;16.14;48.02;99331.53;5025521;28;1036;-39
2023/04/12 00:13:15;;;;;;;;;;;;;;;17.15;47.88;99330.69;5025941;28;1148;-39
2023/04/12 00:15:40;;;;;;;;;;;;;;;16.54;48.41;99320.03;5019841;28;1087;-40
2023/04/12 00:18:06;;;;;;;;;;;;;;;16.83;48.55;99332.53;5019909;28;1119;-41
2023/04/12 00:20:32;;;;;;;;;;;;;;;17.45;47.86;99326.38;5020118;28;1082;-42
2023/04/12 00:22:57;;;;;;;;;;;;;;;16.69;48.11;99319.66;5024665;28;1083;-39
2023/04/12 00:25:23;;;;;;;;;;;;;;;16.29;47.80;99322.19;5019779;28;1178;-42
2023/04/12 00:27:48;;;;;;;;;;;;;;;16.55;47.90;99325.19;5019665;28;1019;-42
2023/04/12 00:30:14;;;;;;;;;;;;;;;16.61;48.94;99331.38;5019521;28;1906;-40
2023/04/12 00:32:41;;;;;;;;;;;;;;;16.73;49.05;99336.31;5019659;28;1056;-40
2023/04/12 00:35:07;;;;;;;;;;;;;;;18.16;47.07;99330.25;5026276;28;1150;-42
2023/04/12 00:37:32;;;;;;;;;;;;;;;16.84;48.76;99336.91;5023729;28;1163;-40
2023/04/12 00:40:00;;;;;;;;;;;;;;;16.51;48.37;99331.59;5019343;28;1150;-39
2023/04/12 00:42:26;;;;;;;;;;;;;;;16.16;48.04;99326.56;5031640;28;1610;-43
2023/04/12 00:44:52;;;;;;;;;;;;;;;16.33;47.68;99333.38;5019247;28;1216;-45
2023/04/12 00:47:17;;;;;;;;;;;;;;;17.05;48.51;99327.06;5025211;28;1106;-40
2023/04/12 00:49:43;;;;;;;;;;;;;;;16.46;48.24;99324.28;5019434;28;1906;-40
2023/04/12 00:52:09;;;;;;;;;;;;;;;16.18;47.88;99329.00;5018709;28;1071;-40
2023/04/12 00:54:36;;;;;;;;;;;;;;;16.67;48.28;99324.63;5019503;28;1059;-40
2023/04/12 00:57:01;;;;;;;;;;;;;;;16.37;48.49;99326.97;5017497;28;1119;-38
2023/04/12 00:59:27;;;;;;;;;;;;;;;16.12;47.89;99330.22;5018934;28;858;-40
2023/04/12 01:01:53;;;;;;;;;;;;;;;16.05;46.85;99334.19;5017952;28;1134;-37
2023/04/12 01:04:21;;;;;;;;;;;;;;;17.22;47.48;99331.91;5019225;28;1098;-42
2023/04/12 01:07:02;;;;;;;;;;;;;;;16.52;48.59;99331.31;5018683;28;1159;-42
2023/04/12 01:09:38;;;;;;;;;;;;;;;16.32;48.39;99327.06;5034420;28;1902;-38
2023/04/12 01:12:13;;;;;;;;;;;;;;;16.77;48.52;99332.66;5008964;28;985;-40
2023/04/12 01:14:41;;;;;;;;;;;;;;;16.09;48.66;99323.44;5017486;28;1134;-42
2023/04/12 01:17:07;;;;;;;;;;;;;;;16.02;47.46;99321.09;5019057;28;1191;-39
2023/04/12 01:19:45;;;;;;;;;;;;;;;16.90;47.83;99314.53;5018583;28;1122;-38
2023/04/12 01:22:26;;;;;;;;;;;;;;;16.21;48.55;99320.16;5018891;28;1043;-39
2023/04/12 01:25:11;;;;;;;;;;;;;;;17.65;47.30;99315.97;5035879;28;1291;-41
2023/04/12 01:27:47;;;;;;;;;;;;;;;16.98;48.45;99321.19;5018739;28;1036;-40
2023/04/12 01:30:13;;;;;;;;;;;;;;;16.40;48.43;99318.09;5004705;28;1906;-36
2023/04/12 01:32:38;;;;;;;;;;;;;;;17.27;48.33;99317.22;5018613;28;1418;-38
2023/04/12 01:35:07;;;;;;;;;;;;;;;16.51;48.77;99320.63;5019538;28;1144;-40
2023/04/12 01:37:33;;;;;;;;;;;;;;;17.94;47.29;99324.50;5023127;28;1189;-39
2023/04/12 01:39:59;;;;;;;;;;;;;;;17.57;48.14;99325.78;5017042;28;1284;-37
2023/04/12 01:42:25;;;;;;;;;;;;;;;16.80;48.70;99316.69;5018347;28;1068;-39
2023/04/12 01:44:50;;;;;;;;;;;;;;;16.59;48.01;99308.91;5025962;28;1298;-40
2023/04/12 01:47:16;;;;;;;;;;;;;;;16.37;47.27;99312.44;5026440;28;1078;-40
2023/04/12 01:49:47;;;;;;;;;;;;;;;16.47;47.54;99314.16;5000493;28;1979;-40
2023/04/12 01:52:13;;;;;;;;;;;;;;;16.92;48.77;99315.03;5018162;28;1091;-39
2023/04/12 01:54:40;;;;;;;;;;;;;;;16.46;48.40;99316.06;5017175;28;1056;-39
2023/04/12 01:57:07;;;;;;;;;;;;;;;16.29;47.22;99316.72;5016877;28;1426;-39
2023/04/12 01:59:39;;;;;;;;;;;;;;;17.50;47.80;99309.75;5020950;28;1217;-40
2023/04/12 02:02:05;;;;;;;;;;;;;;;16.70;48.32;99315.78;5021245;28;1032;-41
2023/04/12 02:04:31;;;;;;;;;;;;;;;16.29;47.91;99308.47;5016879;28;1203;-39
2023/04/12 02:06:57;;;;;;;;;;;;;;;17.07;48.27;99319.34;5000031;28;1456;-37
2023/04/12 02:09:22;;;;;;;;;;;;;;;16.41;48.42;99319.75;5016357;28;1989;-40
2023/04/12 02:11:48;;;;;;;;;;;;;;;17.27;48.00;99312.50;5022586;28;1241;-39
2023/04/12 02:14:14;;;;;;;;;;;;;;;16.89;48.68;99317.59;5028718;28;1119;-40
2023/04/12 02:16:44;;;;;;;;;;;;;;;16.48;47.93;99327.56;5017860;28;1199;-42
2023/04/12 02:19:13;;;;;;;;;;;;;;;16.58;48.59;99324.56;5017680;28;1047;-43
2023/04/12 02:21:41;;;;;;;;;;;;;;;16.54;48.70;99326.31;5017391;28;1151;-44
2023/04/12 02:24:07;;;;;;;;;;;;;;;16.31;48.00;99324.63;5025748;28;1032;-37
2023/04/12 02:26:32;;;;;;;;;;;;;;;16.45;47.82;99322.66;5019471;28;1617;-40
2023/04/12 02:28:59;;;;;;;;;;;;;;;16.51;48.24;99321.44;5016195;28;1910;-38
2023/04/12 02:31:25;;;;;;;;;;;;;;;16.31;47.38;99330.09;5017572;28;1056;-37
2023/04/12 02:33:51;;;;;;;;;;;;;;;17.51;47.29;99316.06;5016059;28;1388;-38
2023/04/12 02:36:17;;;;;;;;;;;;;;;16.49;48.63;99322.88;5024564;28;1151;-40
2023/04/12 02:38:43;;;;;;;;;;;;;;;16.30;47.74;99312.84;5027275;28;1150;-39
2023/04/12 02:41:09;;;;;;;;;;;;;;;16.11;47.10;99317.66;5016208;28;1290;-38
2023/04/12 02:43:35;;;;;;;;;;;;;;;17.22;47.55;99325.56;4999593;28;1386;-37
2023/04/12 02:46:05;;;;;;;;;;;;;;;16.49;48.61;99323.66;5016032;28;1358;-39
2023/04/12 02:48:39;;;;;;;;;;;;;;;16.14;47.81;99322.50;5026990;28;1989;-42
2023/04/12 02:51:05;;;;;;;;;;;;;;;17.27;47.58;99318.00;5016236;28;1127;-37
2023/04/12 02:53:32;;;;;;;;;;;;;;;16.40;48.58;99318.09;5016322;28;1221;-44
2023/04/12 02:56:11;;;;;;;;;;;;;;;16.14;47.48;99320.56;5017198;28;1003;-39
2023/04/12 02:58:37;;;;;;;;;;;;;;;16.80;48.14;99313.94;5015500;28;1522;-40
2023/04/12 03:01:06;;;;;;;;;;;;;;;16.60;48.25;99318.78;5021629;28;1265;-41
2023/04/12 03:03:38;;;;;;;;;;;;;;;16.19;47.58;99319.66;5014998;28;1127;-42
2023/04/12 03:06:21;;;;;;;;;;;;;;;17.18;47.63;99319.91;5015605;28;1496;-45
2023/04/12 03:08:46;;;;;;;;;;;;;;;16.70;48.11;99314.97;5015523;28;1909;-37
2023/04/12 03:11:12;;;;;;;;;;;;;;;16.30;47.75;99318.34;5015541;28;1554;-37
2023/04/12 03:13:38;;;;;;;;;;;;;;;17.27;47.46;99319.97;5028227;28;1131;-38
2023/04/12 03:16:18;;;;;;;;;;;;;;;16.42;48.30;99315.88;5026002;28;1396;-41
2023/04/12 03:18:44;;;;;;;;;;;;;;;16.11;47.29;99321.19;5014987;28;1306;-44
2023/04/12 03:21:10;;;;;;;;;;;;;;;16.02;46.76;99326.59;5015218;28;1306;-42
2023/04/12 03:23:38;;;;;;;;;;;;;;;16.65;48.21;99329.66;5015516;28;1637;-41
2023/04/12 03:26:13;;;;;;;;;;;;;;;16.22;47.90;99333.56;5021444;28;1283;-43
2023/04/12 03:29:03;;;;;;;;;;;;;;;16.03;47.25;99333.69;5015180;28;1902;-41
2023/04/12 03:31:32;;;;;;;;;;;;;;;16.54;48.04;99336.47;5020378;28;1952;-40
2023/04/12 03:34:03;;;;;;;;;;;;;;;17.19;47.55;99337.19;5004756;28;1309;-42
2023/04/12 03:36:30;;;;;;;;;;;;;;;18.48;45.69;99334.50;5030437;28;1392;-38
2023/04/12 03:39:13;;;;;;;;;;;;;;;16.87;48.47;99339.84;5015761;28;1256;-45
2023/04/12 03:41:39;;;;;;;;;;;;;;;16.50;47.86;99340.97;5016455;28;1402;-43
2023/04/12 03:44:06;;;;;;;;;;;;;;;16.24;47.40;99336.00;5016335;28;1202;-43
2023/04/12 03:46:33;;;;;;;;;;;;;;;16.89;48.36;99336.81;5007274;28;1200;-43
2023/04/12 03:49:03;;;;;;;;;;;;;;;16.31;48.56;99347.38;5030501;28;1976;-45
2023/04/12 03:51:31;;;;;;;;;;;;;;;16.47;48.25;99339.63;5021841;28;1159;-43
2023/04/12 03:54:01;;;;;;;;;;;;;;;16.59;48.22;99344.59;5034558;28;1071;-44
2023/04/12 03:56:30;;;;;;;;;;;;;;;17.16;48.08;99346.06;5023623;28;1183;-49
2023/04/12 03:58:59;;;;;;;;;;;;;;;18.10;46.79;99341.41;5021274;28;1252;-44
2023/04/12 04:01:25;;;;;;;;;;;;;;;16.78;48.79;99349.94;5034332;28;1107;-43
2023/04/12 04:03:52;;;;;;;;;;;;;;;16.49;47.97;99342.88;5033741;28;1312;-47
2023/04/12 04:06:21;;;;;;;;;;;;;;;16.28;47.32;99348.00;5024798;28;1140;-46
2023/04/12 04:08:48;;;;;;;;;;;;;;;16.06;47.05;99345.97;5030767;28;1984;-48
2023/04/12 04:11:15;;;;;;;;;;;;;;;16.51;47.98;99342.56;5034485;28;1170;-45
2023/04/12 04:13:45;;;;;;;;;;;;;;;16.62;48.62;99343.16;5031355;28;1134;-46
2023/04/12 04:16:16;;;;;;;;;;;;;;;16.34;48.12;99348.69;5034453;28;1127;-43
2023/04/12 04:18:42;;;;;;;;;;;;;;;16.04;47.42;99354.50;5012017;28;1104;-43
2023/04/12 04:21:10;;;;;;;;;;;;;;;15.92;46.74;99354.19;5027733;28;1242;-42
2023/04/12 04:23:37;;;;;;;;;;;;;;;17.03;47.63;99353.25;5033913;28;1091;-48
2023/04/12 04:26:10;;;;;;;;;;;;;;;16.30;48.05;99353.16;5021623;28;1230;-48
2023/04/12 04:28:46;;;;;;;;;;;;;;;16.05;47.47;99361.63;5026997;28;1913;-47
2023/04/12 04:31:16;;;;;;;;;;;;;;;17.07;47.63;99357.78;5017921;28;1203;-43
2023/04/12 04:33:45;;;;;;;;;;;;;;;16.20;48.14;99356.94;5017530;28;1204;-46
2023/04/12 04:36:12;;;;;;;;;;;;;;;15.95;47.55;99350.03;5029406;28;1168;-44
2023/04/12 04:38:43;;;;;;;;;;;;;;;16.80;48.08;99350.41;5024670;28;1091;-46
2023/04/12 04:41:21;;;;;;;;;;;;;;;16.23;48.32;99359.09;5023444;28;1182;-46
2023/04/12 04:43:54;;;;;;;;;;;;;;;16.03;47.25;99358.38;5028529;28;1143;-48
2023/04/12 04:46:22;;;;;;;;;;;;;;;16.00;47.40;99352.69;5020025;28;1134;-46
2023/04/12 04:48:48;;;;;;;;;;;;;;;16.45;48.38;99354.78;5022766;28;1905;-45
2023/04/12 04:51:14;;;;;;;;;;;;;;;16.02;48.20;99354.00;5032304;28;1099;-43
2023/04/12 04:53:40;;;;;;;;;;;;;;;16.23;47.98;99361.81;5019148;28;1151;-43
2023/04/12 04:56:10;;;;;;;;;;;;;;;16.44;48.31;99362.22;5031245;28;1251;-49
2023/04/12 04:58:36;;;;;;;;;;;;;;;16.07;47.81;99356.66;5016857;28;1497;-45
2023/04/12 05:01:02;;;;;;;;;;;;;;;15.81;47.40;99356.31;5034362;28;1231;-47
2023/04/12 05:03:29;;;;;;;;;;;;;;;16.89;47.73;99356.84;5026280;28;1139;-45
2023/04/12 05:05:55;;;;;;;;;;;;;;;16.12;48.40;99354.91;5030748;28;1134;-45
2023/04/12 05:08:21;;;;;;;;;;;;;;;17.23;46.35;99358.22;5023140;28;1048;-43
2023/04/12 05:10:51;;;;;;;;;;;;;;;16.65;47.54;99359.84;5026335;28;1974;-44
2023/04/12 05:13:18;;;;;;;;;;;;;;;16.30;48.72;99366.88;5020442;28;1502;-44
2023/04/12 05:15:44;;;;;;;;;;;;;;;16.08;49.09;99360.19;5038024;28;1008;-48
2023/04/12 05:18:09;;;;;;;;;;;;;;;15.91;49.51;99360.81;5035191;28;1396;-46
2023/04/12 05:20:39;;;;;;;;;;;;;;;15.80;49.79;99362.91;5037013;28;1186;-44
2023/04/12 05:23:04;;;;;;;;;;;;;;;15.72;50.03;99369.06;5032695;28;1114;-47
2023/04/12 05:25:31;;;;;;;;;;;;;;;15.60;50.55;99361.34;5026156;28;2219;-44
2023/04/12 05:28:03;;;;;;;;;;;;;;;15.53;50.78;99363.66;5034029;28;1202;-41
2023/04/12 05:30:29;;;;;;;;;;;;;;;15.43;50.89;99364.66;5022870;28;1981;-44
2023/04/12 05:32:55;;;;;;;;;;;;;;;15.32;51.33;99366.75;5033758;28;1864;-45
2023/04/12 05:35:21;;;;;;;;;;;;;;;16.34;48.91;99368.72;5015458;28;1259;-44
2023/04/12 05:37:48;;;;;;;;;;;;;;;17.04;47.02;99352.94;5024102;28;1162;-46
2023/04/12 05:40:14;;;;;;;;;;;;;;;16.13;49.38;99357.34;5018137;28;1171;-45
2023/04/12 05:42:40;;;;;;;;;;;;;;;15.77;50.20;99363.50;5034724;28;1158;-44
2023/04/12 05:45:06;;;;;;;;;;;;;;;15.61;50.73;99345.69;5033158;28;1131;-44
2023/04/12 05:47:35;;;;;;;;;;;;;;;15.43;51.44;99361.09;5036108;28;1226;-45
2023/04/12 05:50:00;;;;;;;;;;;;;;;15.45;51.22;99359.69;5034775;28;1918;-41
2023/04/12 05:52:26;;;;;;;;;;;;;;;17.04;47.54;99355.69;5036603;28;1321;-45
2023/04/12 05:54:52;;;;;;;;;;;;;;;16.57;48.44;99344.09;5035105;28;1179;-44
2023/04/12 05:57:19;;;;;;;;;;;;;;;15.95;50.07;99347.28;5027061;28;1171;-46
2023/04/12 05:59:47;;;;;;;;;;;;;;;15.72;50.59;99353.44;5018653;28;1154;-43
2023/04/12 06:02:12;;;;;;;;;;;;;;;15.54;50.97;99346.09;5024015;28;1119;-45
2023/04/12 06:04:39;;;;;;;;;;;;;;;15.41;51.54;99342.22;5028795;28;1293;-43
2023/04/12 06:07:08;;;;;;;;;;;;;;;15.60;51.46;99353.13;5030591;28;1115;-43
2023/04/12 06:09:35;;;;;;;;;;;;;;;17.13;47.34;99343.94;5027671;28;1926;-45
2023/04/12 06:12:01;;;;;;;;;;;;;;;16.73;48.02;99344.53;5036698;28;1035;-44
2023/04/12 06:14:28;;;;;;;;;;;;;;;16.07;49.97;99348.44;5033815;28;1322;-45
2023/04/12 06:16:54;;;;;;;;;;;;;;;15.81;50.48;99347.28;5032353;28;972;-45
2023/04/12 06:19:20;;;;;;;;;;;;;;;15.62;51.27;99359.09;5005551;28;1243;-43
2023/04/12 06:21:45;;;;;;;;;;;;;;;15.49;51.54;99354.41;5031210;28;1464;-46
2023/04/12 06:24:11;;;;;;;;;;;;;;;16.18;50.04;99349.00;5017339;28;1099;-49
2023/04/12 06:26:37;;;;;;;;;;;;;;;17.41;46.89;99339.91;5016669;28;1293;-46
2023/04/12 06:29:03;;;;;;;;;;;;;;;16.46;49.24;99348.19;5015079;28;1906;-44
2023/04/12 06:31:29;;;;;;;;;;;;;;;15.92;50.41;99345.97;5019596;28;1159;-45
2023/04/12 06:33:55;;;;;;;;;;;;;;;15.71;51.16;99357.31;5024969;28;1305;-45
2023/04/12 06:36:21;;;;;;;;;;;;;;;15.58;51.42;99358.06;5033057;28;1278;-46
2023/04/12 06:38:49;;;;;;;;;;;;;;;15.51;51.68;99360.41;5031288;28;897;-49
2023/04/12 06:41:15;;;;;;;;;;;;;;;17.07;47.84;99348.75;5034066;28;1090;-43
2023/04/12 06:43:40;;;;;;;;;;;;;;;16.72;48.51;99353.94;5028327;28;1197;-40
2023/04/12 06:46:07;;;;;;;;;;;;;;;16.05;50.40;99355.31;5028792;28;1161;-45
2023/04/12 06:48:33;;;;;;;;;;;;;;;15.74;51.31;99362.16;5024888;28;1209;-46
2023/04/12 06:50:59;;;;;;;;;;;;;;;15.62;51.56;99358.28;5029492;28;1910;-43
2023/04/12 06:53:24;;;;;;;;;;;;;;;16.02;50.54;99367.72;5026810;28;1155;-46
2023/04/12 06:55:50;;;;;;;;;;;;;;;17.26;47.47;99363.13;5029914;28;1103;-46
2023/04/12 06:58:16;;;;;;;;;;;;;;;16.30;49.81;99364.97;5043829;28;1167;-43
2023/04/12 07:00:41;;;;;;;;;;;;;;;15.86;51.13;99378.13;5029773;28;1142;-47
2023/04/12 07:03:07;;;;;;;;;;;;;;;15.67;51.28;99375.47;5008461;28;949;-47
2023/04/12 07:05:33;;;;;;;;;;;;;;;15.50;51.79;99377.94;5007145;28;1132;-47
2023/04/12 07:07:59;;;;;;;;;;;;;;;15.47;51.93;99381.28;5023386;28;1150;-42
2023/04/12 07:10:24;;;;;;;;;;;;;;;16.97;48.60;99381.94;5023538;28;1910;-48
2023/04/12 07:12:50;;;;;;;;;;;;;;;16.63;48.94;99386.75;5035923;28;1055;-48
2023/04/12 07:15:16;;;;;;;;;;;;;;;16.01;50.74;99381.72;5024820;28;956;-43
2023/04/12 07:17:41;;;;;;;;;;;;;;;15.72;51.63;99389.06;5005291;28;1131;-43
2023/04/12 07:20:07;;;;;;;;;;;;;;;15.58;51.61;99390.94;5024338;28;1174;-46
2023/04/12 07:22:33;;;;;;;;;;;;;;;16.74;49.12;99401.88;5022528;28;1140;-46
2023/04/12 07:24:58;;;;;;;;;;;;;;;16.77;48.61;99384.81;5018172;28;1078;-46
2023/04/12 07:27:24;;;;;;;;;;;;;;;16.04;50.76;99383.84;5015519;28;937;-43
2023/04/12 07:29:50;;;;;;;;;;;;;;;15.74;51.44;99386.84;5022375;28;1906;-46
2023/04/12 07:32:16;;;;;;;;;;;;;;;15.56;51.98;99382.22;5036059;28;1030;-42
2023/04/12 07:34:42;;;;;;;;;;;;;;;15.43;52.21;99383.00;5016353;28;1073;-45
2023/04/12 07:37:07;;;;;;;;;;;;;;;16.73;49.10;99397.53;5015002;28;1072;-44
2023/04/12 07:39:33;;;;;;;;;;;;;;;17.28;47.46;99393.00;5021635;28;933;-47
2023/04/12 07:42:00;;;;;;;;;;;;;;;16.24;50.40;99386.19;5026198;28;1277;-46
2023/04/12 07:44:25;;;;;;;;;;;;;;;15.94;50.90;99393.09;5009555;28;1344;-42
2023/04/12 07:46:51;;;;;;;;;;;;;;;15.68;51.90;99393.53;5008252;28;1299;-44
2023/04/12 07:49:16;;;;;;;;;;;;;;;15.60;51.93;99394.22;5018528;28;1909;-44
2023/04/12 07:51:42;;;;;;;;;;;;;;;16.79;49.22;99397.41;5003979;28;1009;-43
2023/04/12 07:54:08;;;;;;;;;;;;;;;16.92;48.52;99393.84;5003579;28;1088;-45
2023/04/12 07:56:34;;;;;;;;;;;;;;;16.15;50.59;99396.25;5015129;28;1227;-40
2023/04/12 07:58:59;;;;;;;;;;;;;;;15.84;51.53;99404.25;5025038;28;1043;-46
2023/04/12 08:01:25;;;;;;;;;;;;;;;15.66;51.87;99394.94;5028729;28;1127;-45
2023/04/12 08:03:51;;;;;;;;;;;;;;;15.77;51.55;99393.66;5026815;28;1150;-46
2023/04/12 08:06:16;;;;;;;;;;;;;;;17.32;47.74;99384.94;5035903;28;1079;-46
2023/04/12 08:08:42;;;;;;;;;;;;;;;16.48;49.60;99385.19;5039358;28;1898;-43
2023/04/12 08:11:07;;;;;;;;;;;;;;;16.03;50.96;99384.97;5032958;28;1166;-42
2023/04/12 08:13:33;;;;;;;;;;;;;;;15.74;51.60;99386.84;5022525;28;1055;-45
2023/04/12 08:15:59;;;;;;;;;;;;;;;15.56;52.25;99387.72;5030610;28;1127;-43
2023/04/12 08:18:24;;;;;;;;;;;;;;;15.48;52.16;99385.66;5012013;28;1205;-44
2023/04/12 08:20:50;;;;;;;;;;;;;;;16.60;49.65;99381.88;5032003;28;1238;-46
2023/04/12 08:23:16;;;;;;;;;;;;;;;17.34;47.72;99389.00;5036410;28;1046;-46
2023/04/12 08:25:42;;;;;;;;;;;;;;;16.32;50.38;99387.41;5029148;28;1072;-47
2023/04/12 08:28:07;;;;;;;;;;;;;;;15.94;51.17;99395.03;5035224;28;860;-46
2023/04/12 08:30:33;;;;;;;;;;;;;;;15.74;51.63;99399.72;5028992;28;1977;-44
2023/04/12 08:32:59;;;;;;;;;;;;;;;15.60;52.29;99393.38;5037350;28;1059;-44
2023/04/12 08:35:24;;;;;;;;;;;;;;;15.48;52.15;99397.41;5038774;28;1046;-47
2023/04/12 08:37:50;;;;;;;;;;;;;;;16.81;49.61;99392.44;5026119;28;1099;-47
2023/04/12 08:40:16;;;;;;;;;;;;;;;16.88;49.03;99392.81;5028838;28;1006;-45
2023/04/12 08:42:41;;;;;;;;;;;;;;;16.10;51.17;99403.75;5031497;28;1052;-41
2023/04/12 08:45:07;;;;;;;;;;;;;;;15.81;51.61;99400.19;5029289;28;1186;-45
2023/04/12 08:47:33;;;;;;;;;;;;;;;15.56;52.42;99393.19;5035762;28;1050;-46
2023/04/12 08:50:00;;;;;;;;;;;;;;;15.42;52.68;99395.06;5029660;28;1972;-47
2023/04/12 08:52:26;;;;;;;;;;;;;;;16.06;51.59;99390.66;5025110;28;877;-46
2023/04/12 08:54:52;;;;;;;;;;;;;;;17.42;47.89;99388.25;5028581;28;1142;-47
2023/04/12 08:57:18;;;;;;;;;;;;;;;16.50;50.25;99388.41;5035971;28;1071;-48
2023/04/12 08:59:44;;;;;;;;;;;;;;;16.01;51.60;99393.50;5028310;28;1190;-45
2023/04/12 09:02:10;;;;;;;;;;;;;;;15.73;52.05;99387.94;5036337;28;1037;-47
2023/04/12 09:04:45;;;;;;;;;;;;;;;15.62;52.21;99393.91;5025949;28;1348;-43
2023/04/12 09:07:11;;;;;;;;;;;;;;;15.46;52.72;99391.44;5031870;28;1111;-44
2023/04/12 09:09:43;;;;;;;;;;;;;;;16.91;49.31;99384.81;5019062;28;2036;-41
2023/04/12 09:12:09;;;;;;;;;;;;;;;16.58;49.84;99398.66;5036781;28;1214;-45
2023/04/12 09:14:34;;;;;;;;;;;;;;;15.96;51.71;99396.31;5027339;28;1106;-46
2023/04/12 09:17:00;;;;;;;;;;;;;;;15.71;52.38;99406.63;5036858;28;1187;-48
2023/04/12 09:19:32;;;;;;;;;;;;;;;15.61;52.38;99406.78;5026792;28;1198;-46
2023/04/12 09:21:58;;;;;;;;;;;;;;;16.72;50.17;99409.63;5031679;28;1098;-44
2023/04/12 09:24:23;;;;;;;;;;;;;;;17.00;49.08;99401.34;5022996;28;1035;-46
2023/04/12 09:27:04;;;;;;;;;;;;;;;16.14;51.35;99397.34;5036964;28;1098;-44
2023/04/12 09:29:30;;;;;;;;;;;;;;;15.79;52.00;99407.03;5022230;28;1980;-44
2023/04/12 09:32:02;;;;;;;;;;;;;;;15.63;52.59;99404.56;5010253;28;1032;-45
2023/04/12 09:34:31;;;;;;;;;;;;;;;15.46;52.89;99401.56;5027033;28;1126;-43
2023/04/12 09:36:57;;;;;;;;;;;;;;;15.49;53.01;99401.78;5029254;28;1171;-46
2023/04/12 09:39:32;;;;;;;;;;;;;;;17.04;49.15;99402.34;5028760;28;1103;-47
2023/04/12 09:42:07;;;;;;;;;;;;;;;16.81;49.43;99409.69;5038081;28;1082;-43
2023/04/12 09:44:33;;;;;;;;;;;;;;;16.05;51.85;99412.91;5024489;28;1162;-46
2023/04/12 09:47:00;;;;;;;;;;;;;;;15.79;52.07;99409.78;5038044;28;1073;-45
2023/04/12 09:49:55;;;;;;;;;;;;;;;15.61;52.56;99406.78;5035507;28;1910;-47
2023/04/12 09:52:21;;;;;;;;;;;;;;;16.85;49.81;99416.19;5026880;28;1345;-45
2023/04/12 09:54:49;;;;;;;;;;;;;;;16.57;50.34;99409.94;5019946;28;1202;-45
2023/04/12 09:57:19;;;;;;;;;;;;;;;16.05;51.50;99410.97;5025252;28;1048;-44
2023/04/12 09:59:45;;;;;;;;;;;;;;;15.69;52.57;99397.88;5005700;28;1231;-43
2023/04/12 10:02:13;;;;;;;;;;;;;;;15.56;52.57;99404.97;5020387;28;1255;-42
2023/04/12 10:04:39;;;;;;;;;;;;;;;15.45;53.02;99406.25;5028775;28;897;-45
2023/04/12 10:07:05;;;;;;;;;;;;;;;15.63;52.88;99407.31;5030792;28;1072;-48
2023/04/12 10:09:31;;;;;;;;;;;;;;;17.12;49.10;99411.78;5023285;28;1973;-47
2023/04/12 10:11:58;;;;;;;;;;;;;;;16.69;50.14;99412.16;5031212;28;1127;-46
2023/04/12 10:14:23;;;;;;;;;;;;;;;16.05;51.67;99413.72;5024458;28;1043;-45
2023/04/12 10:16:49;;;;;;;;;;;;;;;15.77;52.26;99412.00;5017715;28;1027;-44
2023/04/12 10:19:15;;;;;;;;;;;;;;;15.59;52.87;99413.72;5018023;28;1270;-45
2023/04/12 10:21:41;;;;;;;;;;;;;;;16.40;51.25;99414.13;5042673;28;1159;-45
2023/04/12 10:24:06;;;;;;;;;;;;;;;17.51;48.13;99409.50;5034197;28;1015;-48
2023/04/12 10:26:32;;;;;;;;;;;;;;;16.48;50.68;99411.78;5017413;28;1178;-44
2023/04/12 10:29:30;;;;;;;;;;;;;;;16.03;51.89;99412.38;5023359;28;1914;-46
2023/04/12 10:31:57;;;;;;;;;;;;;;;15.74;52.30;99407.97;5023581;28;1471;-45
2023/04/12 10:34:23;;;;;;;;;;;;;;;15.53;52.91;99416.53;5024116;28;1126;-44
2023/04/12 10:36:55;;;;;;;;;;;;;;;15.46;52.86;99418.00;5036070;28;1042;-46
2023/04/12 10:39:34;;;;;;;;;;;;;;;16.71;50.50;99421.72;5022545;28;1150;-44
2023/04/12 10:42:17;;;;;;;;;;;;;;;17.05;49.32;99414.94;5027366;28;1058;-47
2023/04/12 10:44:43;;;;;;;;;;;;;;;16.14;51.57;99415.75;5036343;28;1245;-44
2023/04/12 10:47:09;;;;;;;;;;;;;;;15.84;52.21;99420.69;5024364;28;1100;-45
2023/04/12 10:49:34;;;;;;;;;;;;;;;15.62;52.77;99430.34;5030787;28;1972;-44
2023/04/12 10:52:00;;;;;;;;;;;;;;;16.12;51.97;99429.78;5028903;28;1067;-42
2023/04/12 10:54:26;;;;;;;;;;;;;;;17.34;48.61;99426.69;5033206;28;1030;-45
2023/04/12 10:56:51;;;;;;;;;;;;;;;16.33;51.32;99419.22;5029421;28;1079;-45
2023/04/12 10:59:49;;;;;;;;;;;;;;;15.86;52.56;99432.97;5003559;28;1160;-47
2023/04/12 11:02:15;;;;;;;;;;;;;;;15.66;52.85;99436.84;5029883;28;1156;-43
2023/04/12 11:05:07;;;;;;;;;;;;;;;15.51;53.10;99426.94;5020435;28;1261;-46
2023/04/12 11:07:54;;;;;;;;;;;;;;;15.49;53.38;99425.66;5015438;28;1208;-47
2023/04/12 11:10:38;;;;;;;;;;;;;;;17.18;49.44;99426.19;5023199;28;1910;-47
2023/04/12 11:13:07;;;;;;;;;;;;;;;16.56;50.66;99430.28;5036527;28;1079;-44
2023/04/12 11:15:33;;;;;;;;;;;;;;;15.94;52.24;99436.16;5029033;28;1055;-46
2023/04/12 11:17:59;;;;;;;;;;;;;;;15.76;52.51;99429.56;5023476;28;1179;-45
2023/04/12 11:20:26;;;;;;;;;;;;;;;15.55;53.04;99429.91;5031972;28;1289;-45
2023/04/12 11:22:51;;;;;;;;;;;;;;;16.23;52.02;99425.72;5022985;28;1238;-45
2023/04/12 11:25:17;;;;;;;;;;;;;;;17.43;48.49;99420.13;5034341;28;1170;-44
2023/04/12 11:27:52;;;;;;;;;;;;;;;16.37;51.00;99422.97;5022640;28;1134;-47
2023/04/12 11:30:18;;;;;;;;;;;;;;;15.96;52.07;99422.94;5023653;28;1910;-45
2023/04/12 11:32:44;;;;;;;;;;;;;;;15.70;52.82;99426.91;5035291;28;1035;-44
2023/04/12 11:35:10;;;;;;;;;;;;;;;15.56;52.95;99429.63;5017063;28;1023;-42
2023/04/12 11:37:36;;;;;;;;;;;;;;;17.00;49.89;99417.00;5028306;28;1138;-45
2023/04/12 11:40:04;;;;;;;;;;;;;;;16.84;50.03;99424.75;5018011;28;1118;-44
2023/04/12 11:42:29;;;;;;;;;;;;;;;16.13;51.73;99427.81;5031552;28;1118;-45
2023/04/12 11:44:55;;;;;;;;;;;;;;;15.88;52.56;99428.00;5038458;28;1245;-46
2023/04/12 11:47:22;;;;;;;;;;;;;;;15.69;52.97;99419.81;5038805;28;999;-44
2023/04/12 11:49:48;;;;;;;;;;;;;;;15.57;52.93;99422.19;5040108;28;1969;-42
2023/04/12 11:52:14;;;;;;;;;;;;;;;15.88;52.59;99424.47;5025504;28;1138;-40
2023/04/12 11:54:46;;;;;;;;;;;;;;;17.28;49.17;99415.78;5028474;28;1023;-42
2023/04/12 11:57:13;;;;;;;;;;;;;;;16.32;51.39;99414.03;5037410;28;1003;-46
2023/04/12 11:59:38;;;;;;;;;;;;;;;15.89;52.72;99429.63;5023505;28;1108;-48
2023/04/12 12:02:04;;;;;;;;;;;;;;;15.69;52.83;99421.75;5012378;28;1231;-47
2023/04/12 12:04:30;;;;;;;;;;;;;;;15.50;53.28;99425.34;5020124;28;1125;-46
2023/04/12 12:06:56;;;;;;;;;;;;;;;16.53;51.18;99434.44;5014339;28;1040;-41
2023/04/12 12:09:21;;;;;;;;;;;;;;;17.32;48.99;99435.22;5034427;28;1917;-47
2023/04/12 12:11:47;;;;;;;;;;;;;;;16.34;51.60;99441.97;5026168;28;1108;-43
2023/04/12 12:14:16;;;;;;;;;;;;;;;15.96;52.29;99440.19;5035050;28;1104;-48
2023/04/12 12:16:42;;;;;;;;;;;;;;;15.73;53.07;99448.22;5026608;28;853;-47
2023/04/12 12:19:07;;;;;;;;;;;;;;;15.59;53.25;99446.59;5038066;28;1194;-44
2023/04/12 12:21:33;;;;;;;;;;;;;;;15.43;53.33;99440.53;5031490;28;1143;-41
2023/04/12 12:23:59;;;;;;;;;;;;;;;16.72;50.95;99441.75;5021695;28;1067;-42
2023/04/12 12:26:25;;;;;;;;;;;;;;;16.92;49.96;99448.75;5038711;28;1030;-45
2023/04/12 12:28:51;;;;;;;;;;;;;;;16.10;52.19;99450.38;5034587;28;995;-45
2023/04/12 12:31:20;;;;;;;;;;;;;;;15.80;52.67;99453.38;5038960;28;987;-42
2023/04/12 12:33:46;;;;;;;;;;;;;;;15.62;53.06;99446.78;5036746;28;1226;-42
2023/04/12 12:36:12;;;;;;;;;;;;;;;15.56;53.56;99445.25;5025639;28;1054;-46
2023/04/12 12:38:38;;;;;;;;;;;;;;;17.08;49.93;99439.06;5018517;28;1049;-41
2023/04/12 12:41:16;;;;;;;;;;;;;;;16.45;51.08;99448.06;5034762;28;1049;-46
2023/04/12 12:43:47;;;;;;;;;;;;;;;15.93;52.67;99448.22;5028102;28;1202;-45
2023/04/12 12:46:13;;;;;;;;;;;;;;;15.72;53.08;99463.06;5036950;28;1147;-43
2023/04/12 12:48:42;;;;;;;;;;;;;;;15.56;53.17;99461.69;5028957;28;1027;-47
2023/04/12 12:51:08;;;;;;;;;;;;;;;16.43;51.52;99462.91;5036976;28;1975;-48
2023/04/12 12:53:37;;;;;;;;;;;;;;;17.47;48.58;99447.78;5027923;28;985;-48
2023/04/12 12:56:03;;;;;;;;;;;;;;;16.36;51.41;99464.44;5017771;28;1171;-46
2023/04/12 12:58:29;;;;;;;;;;;;;;;15.99;52.60;99457.97;5034143;28;1051;-40
2023/04/12 13:00:54;;;;;;;;;;;;;;;15.75;52.95;99450.66;5036566;28;1012;-44